Time;durP1;ratioP1;P1;durP2;ratioP2;P2;SDS_P1;SDS_P2;PMS_P1;PMS_P2;Temp;Humidity;BMP_temperature;BMP_pressure;BME280_temperature;BME280_humidity;BME280_pressure;Samples;Min_cycle;Max_cycle;Signal;HPM_P1;HPM_P2
2022/09/20 00:02:10;;;;;;;1.20;1.03;;;13.70;43.20;;;;;;10384986;28;20232;-78
2022/09/20 00:07:13;;;;;;;2.30;1.30;;;13.70;43.20;;;;;;10398299;28;20475;-78
2022/09/20 00:12:17;;;;;;;1.97;1.10;;;13.70;43.20;;;;;;10383153;28;20225;-78
2022/09/20 00:17:21;;;;;;;2.10;1.30;;;13.70;43.20;;;;;;10382938;28;20226;-78
2022/09/20 00:22:24;;;;;;;2.20;1.30;;;13.70;43.20;;;;;;10390321;28;20236;-78
2022/09/20 00:27:28;;;;;;;1.93;1.33;;;13.60;43.10;;;;;;10403301;28;20221;-78
2022/09/20 00:32:31;;;;;;;1.77;1.30;;;13.60;43.10;;;;;;10393490;28;20672;-78
2022/09/20 00:37:35;;;;;;;1.37;1.20;;;13.60;43.10;;;;;;10389945;28;20229;-78
2022/09/20 00:42:39;;;;;;;1.93;1.50;;;13.50;43.00;;;;;;10388926;28;20222;-78
2022/09/20 00:47:47;;;;;;;1.90;1.33;;;13.50;43.20;;;;;;10402938;28;20278;-78
2022/09/20 00:52:55;;;;;;;1.60;1.27;;;13.50;43.30;;;;;;10420900;28;20279;-78
2022/09/20 00:58:00;;;;;;;1.83;1.53;;;13.50;43.50;;;;;;10388915;28;20234;-78
2022/09/20 01:03:07;;;;;;;2.17;1.37;;;13.50;43.60;;;;;;10406744;28;20260;-78
2022/09/20 01:08:11;;;;;;;2.23;1.40;;;13.50;43.60;;;;;;10411398;28;20297;-78
2022/09/20 01:13:15;;;;;;;1.67;1.30;;;13.50;43.60;;;;;;10387265;28;20230;-78
2022/09/20 01:18:20;;;;;;;1.83;1.00;;;13.50;43.70;;;;;;10391044;28;20285;-78
2022/09/20 01:23:35;;;;;;;1.67;1.20;;;13.50;43.40;;;;;;10387596;28;20230;-78
2022/09/20 01:28:43;;;;;;;2.97;1.30;;;13.50;43.70;;;;;;10389087;28;20279;-78
2022/09/20 01:33:49;;;;;;;1.77;1.20;;;13.60;43.40;;;;;;10391662;28;20233;-78
2022/09/20 01:39:05;;;;;;;1.63;1.20;;;13.60;43.10;;;;;;10389257;28;20228;-78
2022/09/20 01:44:16;;;;;;;1.60;1.50;;;13.60;43.40;;;;;;10388343;28;20284;-78
2022/09/20 01:49:29;;;;;;;1.87;1.10;;;13.60;43.30;;;;;;10393855;28;20276;-78
2022/09/20 01:55:17;;;;;;;2.00;1.20;;;13.70;43.30;;;;;;10388097;28;20233;-78
2022/09/20 02:00:25;;;;;;;1.67;1.10;;;13.60;43.10;;;;;;10285956;28;20227;-78
2022/09/20 02:05:52;;;;;;;1.27;1.17;;;13.60;43.10;;;;;;10399550;28;20280;-78
2022/09/20 02:11:06;;;;;;;2.00;1.10;;;13.60;43.10;;;;;;10416863;28;20671;-78
2022/09/20 02:16:35;;;;;;;1.93;1.27;;;13.60;43.20;;;;;;10426494;28;20288;-79
2022/09/20 02:21:47;;;;;;;1.10;1.00;;;13.60;43.10;;;;;;10427859;28;20229;-78
2022/09/20 02:27:03;;;;;;;1.03;0.93;;;13.60;43.10;;;;;;10427465;28;20282;-78
2022/09/20 02:32:29;;;;;;;1.10;0.90;;;13.70;43.20;;;;;;10426836;28;20274;-78
2022/09/20 02:37:50;;;;;;;1.50;1.00;;;13.70;43.20;;;;;;10426185;28;20231;-77
2022/09/20 02:43:04;;;;;;;1.70;1.10;;;13.70;43.20;;;;;;10423398;28;20256;-78
2022/09/20 02:48:09;;;;;;;1.13;1.10;;;13.80;43.30;;;;;;10378745;28;20603;-78
2022/09/20 02:53:29;;;;;;;1.67;1.27;;;13.80;43.30;;;;;;10407998;28;20241;-77
2022/09/20 02:58:42;;;;;;;1.23;1.00;;;13.80;43.30;;;;;;10382819;28;20233;-78
2022/09/20 03:03:56;;;;;;;1.57;1.10;;;13.80;43.30;;;;;;10383443;28;20308;-78
2022/09/20 03:09:07;;;;;;;3.77;1.20;;;13.70;43.20;;;;;;10384530;28;20230;-78
2022/09/20 03:14:21;;;;;;;1.40;1.10;;;13.70;43.20;;;;;;10383678;28;20225;-78
2022/09/20 03:19:45;;;;;;;1.10;1.00;;;13.70;43.90;;;;;;10381761;28;20480;-78
2022/09/20 03:25:07;;;;;;;2.00;1.17;;;13.70;43.20;;;;;;10389562;28;20237;-78
2022/09/20 03:30:27;;;;;;;1.20;1.00;;;13.70;43.20;;;;;;10400652;28;20217;-78
2022/09/20 03:35:45;;;;;;;3.63;1.33;;;13.70;43.20;;;;;;10382346;28;20225;-78
2022/09/20 03:41:09;;;;;;;1.20;1.10;;;13.70;43.90;;;;;;10377672;28;20729;-78
2022/09/20 03:46:18;;;;;;;1.67;1.00;;;13.70;43.20;;;;;;10426006;28;20286;-78
2022/09/20 03:51:29;;;;;;;2.33;1.20;;;13.70;43.20;;;;;;10407178;28;22437;-78
2022/09/20 03:57:05;;;;;;;1.50;1.10;;;13.70;43.20;;;;;;10384545;28;20244;-78
2022/09/20 04:02:36;;;;;;;1.60;1.13;;;13.60;43.10;;;;;;10381474;28;20292;-78
2022/09/20 04:07:53;;;;;;;1.40;1.30;;;13.60;43.10;;;;;;10379765;28;20214;-78
2022/09/20 04:13:09;;;;;;;1.30;1.20;;;13.60;43.10;;;;;;10377977;28;20237;-73
2022/09/20 04:18:23;;;;;;;2.73;1.30;;;13.60;43.10;;;;;;10371199;28;20693;-73
2022/09/20 04:23:44;;;;;;;1.30;1.20;;;13.60;43.10;;;;;;10366919;28;20234;-73
2022/09/20 04:28:53;;;;;;;1.87;1.20;;;13.60;43.10;;;;;;10369685;28;20229;-73
2022/09/20 04:33:59;;;;;;;1.63;1.20;;;13.60;43.80;;;;;;10371614;28;20571;-73
2022/09/20 04:39:15;;;;;;;1.67;1.40;;;13.60;43.10;;;;;;10370036;28;20296;-73
2022/09/20 04:44:40;;;;;;;1.77;1.30;;;13.60;43.20;;;;;;10375213;28;20229;-74
2022/09/20 04:50:25;;;;;;;2.47;2.07;;;13.50;43.30;;;;;;10378171;28;20227;-74
2022/09/20 04:55:51;;;;;;;1.73;1.50;;;13.60;43.60;;;;;;10403265;28;20651;-74
2022/09/20 05:01:34;;;;;;;2.97;1.67;;;13.60;43.30;;;;;;10413922;28;20347;-74
2022/09/20 05:07:06;;;;;;;2.13;1.40;;;13.60;43.50;;;;;;10378767;28;20651;-75
2022/09/20 05:12:33;;;;;;;2.07;1.30;;;13.60;43.70;;;;;;10388466;28;20220;-74
2022/09/20 05:17:52;;;;;;;1.67;1.50;;;13.60;43.40;;;;;;10380152;28;20226;-74
2022/09/20 05:23:26;;;;;;;3.07;2.20;;;13.60;43.40;;;;;;10414824;28;20323;-75
2022/09/20 05:28:36;;;;;;;3.33;1.90;;;13.60;43.60;;;;;;10427124;28;20314;-74
2022/09/20 05:33:48;;;;;;;1.57;1.43;;;13.60;43.60;;;;;;10428256;28;20229;-74
2022/09/20 05:38:58;;;;;;;2.77;1.57;;;13.60;43.40;;;;;;10425940;28;20488;-75
2022/09/20 05:44:15;;;;;;;2.67;1.90;;;13.60;43.10;;;;;;10431612;28;20288;-74
2022/09/20 05:49:35;;;;;;;2.93;1.90;;;13.60;43.60;;;;;;10418601;28;20225;-74
2022/09/20 05:54:57;;;;;;;2.00;1.60;;;13.60;43.60;;;;;;10385110;28;20226;-74
2022/09/20 06:00:07;;;;;;;4.30;1.90;;;13.60;43.70;;;;;;10382973;28;20276;-74
2022/09/20 06:05:15;;;;;;;2.00;1.43;;;13.60;43.60;;;;;;10383095;28;20285;-73
2022/09/20 06:10:55;;;;;;;1.97;1.40;;;13.60;43.60;;;;;;10386576;28;20694;-74
2022/09/20 06:16:03;;;;;;;3.33;1.70;;;13.60;44.10;;;;;;10386360;28;20269;-75
2022/09/20 06:21:20;;;;;;;2.50;1.53;;;13.70;43.80;;;;;;10380972;28;20746;-73
2022/09/20 06:26:28;;;;;;;2.87;1.40;;;13.70;44.20;;;;;;10387005;28;20246;-75
2022/09/20 06:31:32;;;;;;;3.20;2.30;;;13.70;44.00;;;;;;10379810;28;20492;-75
2022/09/20 06:42:00;;;;;;;3.10;1.97;;;13.70;44.10;;;;;;10373791;28;20222;-75
2022/09/20 06:47:07;;;;;;;2.83;2.37;;;13.70;43.80;;;;;;10370647;28;20226;-74
2022/09/20 06:52:13;;;;;;;3.47;2.30;;;13.80;44.10;;;;;;10366214;28;20698;-74
2022/09/20 06:57:23;;;;;;;2.93;2.23;;;13.80;44.10;;;;;;10374850;28;20273;-74
2022/09/20 07:02:27;;;;;;;4.33;2.20;;;13.80;44.00;;;;;;10373314;28;20740;-74
2022/09/20 07:07:30;;;;;;;3.27;2.03;;;13.80;43.90;;;;;;10380628;28;20232;-75
2022/09/20 07:12:34;;;;;;;7.23;2.87;;;13.80;43.90;;;;;;10378918;28;20230;-76
2022/09/20 07:17:38;;;;;;;5.20;2.50;;;13.80;43.90;;;;;;10380382;28;20251;-74
2022/09/20 07:22:42;;;;;;;4.27;3.00;;;13.80;44.30;;;;;;10373155;28;20284;-74
2022/09/20 07:27:46;;;;;;;6.70;2.70;;;13.80;44.10;;;;;;10372288;28;20229;-74
2022/09/20 07:32:50;;;;;;;6.43;3.10;;;13.80;44.20;;;;;;10369628;28;20297;-74
2022/09/20 07:37:57;;;;;;;3.17;2.60;;;13.80;45.20;;;;;;10372984;28;20233;-74
2022/09/20 07:43:00;;;;;;;6.87;3.47;;;13.90;44.80;;;;;;10372259;28;20277;-74
2022/09/20 07:48:06;;;;;;;4.17;2.83;;;13.90;44.30;;;;;;10376409;28;20906;-73
2022/09/20 07:53:09;;;;;;;6.73;4.90;;;13.90;44.40;;;;;;10369282;28;20291;-74
2022/09/20 07:58:12;;;;;;;8.90;6.50;;;14.00;44.20;;;;;;10372557;28;20225;-74
2022/09/20 08:03:16;;;;;;;5.43;3.30;;;14.00;44.00;;;;;;10373689;28;20229;-74
2022/09/20 08:08:20;;;;;;;6.10;3.57;;;14.00;44.00;;;;;;10376235;28;20553;-74
2022/09/20 08:13:23;;;;;;;8.33;3.23;;;14.10;43.60;;;;;;10411186;28;20237;-74
2022/09/20 08:18:50;;;;;;;3.93;3.43;;;14.10;43.80;;;;;;10415400;28;20300;-74
2022/09/20 08:23:53;;;;;;;6.57;3.30;;;14.10;44.00;;;;;;10410804;28;20225;-74
2022/09/20 08:28:58;;;;;;;3.63;2.40;;;14.20;43.90;;;;;;10415377;28;20704;-74
2022/09/20 08:34:05;;;;;;;4.67;2.40;;;14.30;43.70;;;;;;10413254;28;20253;-73
2022/09/20 08:39:09;;;;;;;3.63;2.13;;;14.30;43.90;;;;;;10411555;28;20316;-74
2022/09/20 08:44:35;;;;;;;3.63;1.83;;;14.50;43.90;;;;;;10414720;28;20310;-74
2022/09/20 08:49:40;;;;;;;5.17;2.30;;;14.60;44.00;;;;;;10420314;28;20271;-74
2022/09/20 08:54:48;;;;;;;4.23;2.10;;;14.80;44.20;;;;;;10417954;28;20226;-74
2022/09/20 08:59:51;;;;;;;4.50;2.20;;;14.90;43.70;;;;;;10389712;28;20285;-74
2022/09/20 09:04:56;;;;;;;3.23;1.90;;;15.00;43.40;;;;;;10393857;28;20819;-74
2022/09/20 09:10:01;;;;;;;6.73;2.40;;;15.20;43.10;;;;;;10421047;28;20221;-74
2022/09/20 09:15:21;;;;;;;3.80;2.50;;;15.20;43.30;;;;;;10417457;28;20229;-74
2022/09/20 09:20:26;;;;;;;4.10;2.40;;;15.30;41.70;;;;;;10420016;28;20262;-74
2022/09/20 09:25:33;;;;;;;5.33;2.80;;;15.40;42.70;;;;;;10415693;28;20260;-74
2022/09/20 09:30:38;;;;;;;4.60;2.60;;;15.50;42.50;;;;;;10422986;28;20229;-74
2022/09/20 09:35:44;;;;;;;5.70;2.60;;;15.50;41.70;;;;;;10418648;28;20282;-74
2022/09/20 09:40:51;;;;;;;5.43;2.37;;;15.50;41.90;;;;;;10418979;28;20229;-74
2022/09/20 09:45:55;;;;;;;4.47;1.90;;;15.60;40.80;;;;;;10417554;28;20596;-74
2022/09/20 09:51:19;;;;;;;6.40;2.00;;;15.70;41.20;;;;;;10417208;28;20314;-74
2022/09/20 09:56:36;;;;;;;3.67;1.80;;;15.70;40.10;;;;;;10418917;28;20232;-74
2022/09/20 10:01:50;;;;;;;4.73;2.20;;;15.60;40.50;;;;;;10368480;28;20236;-76
2022/09/20 10:07:02;;;;;;;4.10;1.60;;;15.70;41.20;;;;;;10378908;28;20230;-76
2022/09/20 10:12:21;;;;;;;4.67;1.63;;;15.80;39.80;;;;;;10387266;28;20657;-70
2022/09/20 10:17:42;;;;;;;3.17;1.30;;;15.90;39.60;;;;;;10379727;28;20709;-69
2022/09/20 10:22:54;;;;;;;5.00;1.60;;;16.00;38.80;;;;;;10417498;28;21018;-69
2022/09/20 10:28:47;;;;;;;2.40;1.20;;;16.00;39.00;;;;;;10414435;28;20367;-69
2022/09/20 10:34:01;;;;;;;3.30;1.10;;;16.10;38.10;;;;;;10415156;28;20248;-70
2022/09/20 10:39:13;;;;;;;3.53;1.13;;;16.10;39.40;;;;;;10418813;28;20221;-70
2022/09/20 10:44:42;;;;;;;1.70;1.00;;;16.20;37.10;;;;;;10412465;28;20233;-70
2022/09/20 10:49:56;;;;;;;2.73;1.20;;;16.30;36.30;;;;;;10412066;28;20302;-69
2022/09/20 10:55:33;;;;;;;2.53;0.97;;;16.40;36.10;;;;;;10414997;28;20244;-69
2022/09/20 11:00:47;;;;;;;2.60;1.10;;;16.60;38.40;;;;;;10381884;28;20947;-70
2022/09/20 11:06:01;;;;;;;2.37;1.03;;;16.70;36.00;;;;;;10376368;28;20233;-70
2022/09/20 11:11:11;;;;;;;4.90;1.40;;;16.90;37.00;;;;;;10383042;28;20234;-70
2022/09/20 11:16:17;;;;;;;1.60;1.20;;;17.00;36.50;;;;;;10382925;28;20229;-69
2022/09/20 11:21:27;;;;;;;2.97;1.00;;;17.20;37.10;;;;;;10382914;28;20233;-69
2022/09/20 11:26:37;;;;;;;1.50;0.90;;;17.40;38.40;;;;;;10377797;28;20234;-71
2022/09/20 11:31:44;;;;;;;2.30;0.93;;;17.50;35.70;;;;;;10375912;28;20225;-70
2022/09/20 11:36:56;;;;;;;4.10;0.90;;;17.50;34.40;;;;;;10376901;28;20513;-70
2022/09/20 11:42:04;;;;;;;1.73;0.80;;;17.50;34.60;;;;;;10371434;28;20292;-69
2022/09/20 11:47:14;;;;;;;2.37;1.00;;;17.40;35.70;;;;;;10368345;28;20321;-70
2022/09/20 11:53:03;;;;;;;2.73;1.00;;;17.50;35.90;;;;;;10370618;28;20254;-69
2022/09/20 11:58:10;;;;;;;3.17;1.00;;;17.60;35.10;;;;;;10366903;28;20230;-69
2022/09/20 12:03:25;;;;;;;4.30;1.20;;;17.70;35.80;;;;;;10357753;28;20256;-69
2022/09/20 12:08:32;;;;;;;2.23;1.20;;;17.80;33.10;;;;;;10359032;28;21006;-69
2022/09/20 12:13:39;;;;;;;3.63;1.30;;;17.80;35.50;;;;;;10361959;28;20230;-69
2022/09/20 12:19:02;;;;;;;2.70;1.00;;;17.80;35.40;;;;;;10374654;28;20248;-70
2022/09/20 12:24:21;;;;;;;3.90;1.23;;;17.60;35.20;;;;;;10377650;28;20213;-71
2022/09/20 12:30:13;;;;;;;2.07;1.00;;;17.60;36.90;;;;;;10383743;28;20230;-70
2022/09/20 12:35:56;;;;;;;1.63;0.80;;;17.50;34.30;;;;;;10375148;28;20641;-70
2022/09/20 12:41:04;;;;;;;2.07;0.83;;;17.50;34.40;;;;;;10411019;28;20247;-70
2022/09/20 12:46:17;;;;;;;2.37;1.00;;;17.40;35.90;;;;;;10428525;28;20240;-69
2022/09/20 12:56:51;;;;;;;1.90;0.80;;;17.00;35.40;;;;;;10427414;28;20771;-69
2022/09/20 13:01:55;;;;;;;1.93;1.30;;;16.80;36.40;;;;;;10424207;28;20276;-69
2022/09/20 13:07:32;;;;;;;1.57;0.90;;;16.60;37.30;;;;;;10425081;28;20291;-69
2022/09/20 13:12:40;;;;;;;1.83;0.90;;;16.70;36.50;;;;;;10424730;28;20271;-69
2022/09/20 13:17:44;;;;;;;1.43;1.00;;;16.70;36.30;;;;;;10423523;28;20229;-69
2022/09/20 13:22:48;;;;;;;2.33;1.00;;;16.80;37.20;;;;;;10423573;28;20901;-69
2022/09/20 13:28:01;;;;;;;1.70;0.70;;;16.90;36.50;;;;;;10424190;28;20240;-69
2022/09/20 13:33:22;;;;;;;1.50;0.80;;;17.00;35.60;;;;;;10425459;28;20467;-69
2022/09/20 13:38:28;;;;;;;2.17;1.00;;;17.00;35.50;;;;;;10427372;28;20232;-69
2022/09/20 13:43:37;;;;;;;1.50;0.80;;;17.00;35.60;;;;;;10422471;28;20736;-69
2022/09/20 13:48:41;;;;;;;1.17;0.80;;;16.90;34.90;;;;;;10425834;28;20221;-69
2022/09/20 13:53:45;;;;;;;1.37;0.80;;;16.90;36.00;;;;;;10425699;28;20229;-70
2022/09/20 13:58:51;;;;;;;1.80;0.90;;;16.70;36.40;;;;;;10420462;28;20816;-69
2022/09/20 14:03:56;;;;;;;2.40;0.90;;;16.60;36.20;;;;;;10392646;28;20351;-68
2022/09/20 14:09:02;;;;;;;1.63;1.00;;;16.60;36.80;;;;;;10383802;28;20633;-68
2022/09/20 14:14:14;;;;;;;3.83;1.17;;;16.60;37.00;;;;;;10382201;28;20226;-68
2022/09/20 14:19:29;;;;;;;1.63;0.90;;;16.60;36.80;;;;;;10396735;28;20229;-69
2022/09/20 14:24:34;;;;;;;2.43;1.13;;;16.60;37.20;;;;;;10390132;28;20284;-69
2022/09/20 14:29:41;;;;;;;2.80;0.90;;;16.60;37.90;;;;;;10394067;28;20222;-69
2022/09/20 14:34:47;;;;;;;3.33;1.00;;;16.50;37.30;;;;;;10416698;28;20234;-69
2022/09/20 14:39:52;;;;;;;1.57;0.90;;;16.50;37.80;;;;;;10419211;28;20222;-69
2022/09/20 14:44:57;;;;;;;1.90;1.00;;;16.40;37.90;;;;;;10420807;28;20699;-69
2022/09/20 14:50:02;;;;;;;4.30;3.07;;;16.40;38.20;;;;;;10419741;28;20236;-71
2022/09/20 14:55:27;;;;;;;3.13;2.30;;;16.40;38.20;;;;;;10378944;28;20226;-69
2022/09/20 15:00:47;;;;;;;1.97;1.40;;;16.30;38.10;;;;;;10379055;28;20233;-69
2022/09/20 15:05:51;;;;;;;1.50;1.10;;;16.30;38.60;;;;;;10379351;28;20229;-69
2022/09/20 15:10:54;;;;;;;1.73;1.53;;;16.40;38.40;;;;;;10418826;28;20225;-69
2022/09/20 15:15:59;;;;;;;1.20;1.10;;;16.30;38.40;;;;;;10377836;28;20702;-69
2022/09/20 15:21:02;;;;;;;2.07;1.00;;;16.40;38.60;;;;;;10423073;28;20843;-72
2022/09/20 15:26:07;;;;;;;1.30;0.93;;;16.40;38.30;;;;;;10422115;28;20244;-68
2022/09/20 15:31:13;;;;;;;3.13;1.40;;;16.30;38.50;;;;;;10421985;28;20229;-69
2022/09/20 15:36:17;;;;;;;1.20;1.10;;;16.30;38.70;;;;;;10425041;28;20834;-69
2022/09/20 15:41:20;;;;;;;2.03;1.20;;;16.30;38.70;;;;;;10418983;28;20224;-69
2022/09/20 15:46:26;;;;;;;3.47;1.40;;;16.40;39.20;;;;;;10421373;28;20230;-67
2022/09/20 15:51:30;;;;;;;3.33;1.30;;;16.50;39.10;;;;;;10418923;28;20228;-69
2022/09/20 15:56:34;;;;;;;1.13;1.00;;;16.60;39.10;;;;;;10422021;28;20217;-69
2022/09/20 16:01:40;;;;;;;2.83;1.07;;;16.60;38.20;;;;;;10415555;28;20645;-69
2022/09/20 16:06:48;;;;;;;3.40;1.20;;;16.50;37.90;;;;;;10397758;28;20422;-71
2022/09/20 16:11:57;;;;;;;2.13;1.37;;;16.50;38.20;;;;;;10378071;28;20257;-76
2022/09/20 16:17:01;;;;;;;2.60;1.40;;;16.40;38.80;;;;;;10379126;28;20244;-75
2022/09/20 16:22:05;;;;;;;1.30;1.20;;;16.40;39.10;;;;;;10417253;28;20226;-75
2022/09/20 16:27:09;;;;;;;2.20;1.20;;;16.40;39.40;;;;;;10420682;28;20260;-75
2022/09/20 16:32:14;;;;;;;1.53;0.93;;;16.40;39.00;;;;;;10420717;28;20225;-75
2022/09/20 16:37:17;;;;;;;2.70;1.60;;;16.50;39.40;;;;;;10421119;28;20640;-75
2022/09/20 16:42:22;;;;;;;3.70;2.03;;;16.50;39.60;;;;;;10423741;28;20233;-75
2022/09/20 16:47:26;;;;;;;3.17;2.20;;;16.50;39.60;;;;;;10419359;28;20233;-75
2022/09/20 16:52:29;;;;;;;3.63;2.00;;;16.50;40.00;;;;;;10423299;28;20232;-75
2022/09/20 16:57:32;;;;;;;1.77;1.67;;;16.50;40.10;;;;;;10422986;28;20228;-75
2022/09/20 17:02:37;;;;;;;3.00;2.60;;;16.50;39.90;;;;;;10419555;28;20243;-75
2022/09/20 17:07:42;;;;;;;1.83;1.70;;;16.50;40.20;;;;;;10430677;28;20268;-75
2022/09/20 17:12:46;;;;;;;2.13;1.53;;;16.50;39.70;;;;;;10425227;28;20287;-75
2022/09/20 17:17:51;;;;;;;2.20;1.40;;;16.40;39.50;;;;;;10432657;28;20233;-75
2022/09/20 17:22:54;;;;;;;1.97;1.33;;;16.30;39.50;;;;;;10427116;28;20229;-75
2022/09/20 17:27:57;;;;;;;3.17;1.70;;;16.20;39.40;;;;;;10427299;28;20229;-75
2022/09/20 17:33:02;;;;;;;2.87;1.73;;;16.10;39.40;;;;;;10422689;28;20283;-75
2022/09/20 17:38:05;;;;;;;3.50;1.20;;;16.00;39.20;;;;;;10427428;28;20221;-74
2022/09/20 17:43:08;;;;;;;1.60;1.33;;;15.90;39.10;;;;;;10431361;28;20225;-74
2022/09/20 17:48:12;;;;;;;1.50;1.40;;;15.80;38.70;;;;;;10424492;28;20721;-74
2022/09/20 17:53:17;;;;;;;2.13;1.20;;;15.60;38.70;;;;;;10433833;28;20634;-75
2022/09/20 17:58:20;;;;;;;1.77;1.60;;;15.50;38.80;;;;;;10435997;28;20229;-75
2022/09/20 18:03:25;;;;;;;6.70;6.20;;;15.30;39.10;;;;;;10427862;28;20290;-75
2022/09/20 18:08:32;;;;;;;3.90;3.03;;;15.20;39.80;;;;;;10414803;28;20325;-75
2022/09/20 18:13:37;;;;;;;3.50;2.33;;;15.20;39.50;;;;;;10432030;28;20704;-75
2022/09/20 18:18:42;;;;;;;2.03;1.70;;;15.10;39.60;;;;;;10419073;28;20220;-76
2022/09/20 18:23:47;;;;;;;2.43;2.20;;;15.10;39.50;;;;;;10406579;28;20229;-74
2022/09/20 18:28:57;;;;;;;5.13;4.53;;;15.10;39.70;;;;;;10411161;28;20218;-76
2022/09/20 18:34:03;;;;;;;5.07;4.67;;;15.10;39.90;;;;;;10392149;28;20230;-76
2022/09/20 18:39:10;;;;;;;3.53;2.70;;;15.10;39.90;;;;;;10393455;28;20218;-74
2022/09/20 18:44:19;;;;;;;3.00;2.10;;;15.10;39.70;;;;;;10389116;28;20701;-75
2022/09/20 18:49:24;;;;;;;2.63;1.60;;;15.00;39.40;;;;;;10407147;28;20236;-75
2022/09/20 18:54:32;;;;;;;1.60;1.50;;;15.00;39.90;;;;;;10423362;28;20291;-75
2022/09/20 18:59:40;;;;;;;3.20;1.27;;;15.00;39.70;;;;;;10440101;28;20229;-73
2022/09/20 19:05:24;;;;;;;2.00;1.30;;;15.00;39.80;;;;;;10433372;28;20233;-75
2022/09/20 19:10:38;;;;;;;1.67;1.47;;;14.90;40.10;;;;;;10392082;28;20240;-76
2022/09/20 19:15:54;;;;;;;1.87;1.50;;;15.00;40.30;;;;;;10405425;28;20721;-75
2022/09/20 19:21:06;;;;;;;1.63;1.50;;;15.00;40.30;;;;;;10405882;28;20596;-75
2022/09/20 19:26:20;;;;;;;2.80;1.70;;;15.00;40.30;;;;;;10388951;28;20677;-75
2022/09/20 19:31:28;;;;;;;1.50;1.40;;;14.90;40.40;;;;;;10397892;28;20229;-74
2022/09/20 19:36:39;;;;;;;1.53;1.43;;;14.90;39.90;;;;;;10429608;28;20279;-74
2022/09/20 19:41:50;;;;;;;2.40;1.50;;;14.90;40.00;;;;;;10423701;28;20274;-74
2022/09/20 19:47:08;;;;;;;1.67;1.03;;;14.80;39.60;;;;;;10422852;28;20229;-74
2022/09/20 19:52:13;;;;;;;1.70;1.23;;;14.60;39.50;;;;;;10424396;28;20216;-74
2022/09/20 19:57:20;;;;;;;1.57;1.47;;;14.60;39.60;;;;;;10418173;28;20220;-74
2022/09/20 20:02:23;;;;;;;1.43;1.33;;;14.50;39.70;;;;;;10413079;28;23213;-74
2022/09/20 20:07:36;;;;;;;2.27;1.13;;;14.40;39.50;;;;;;10418458;28;20339;-74
2022/09/20 20:12:49;;;;;;;5.03;1.57;;;14.30;39.60;;;;;;10421371;28;20236;-74
2022/09/20 20:17:59;;;;;;;1.57;1.47;;;14.30;39.50;;;;;;10420611;28;20228;-74
2022/09/20 20:23:47;;;;;;;1.83;1.70;;;14.10;39.50;;;;;;10424284;28;20707;-74
2022/09/20 20:28:51;;;;;;;1.83;1.73;;;14.00;39.50;;;;;;10417208;28;20226;-74
2022/09/20 20:33:54;;;;;;;1.83;1.60;;;13.80;39.30;;;;;;10424674;28;20610;-74
2022/09/20 20:38:59;;;;;;;3.17;1.50;;;13.70;39.70;;;;;;10427453;28;20315;-73
2022/09/20 20:44:04;;;;;;;1.50;1.40;;;13.70;39.90;;;;;;10427526;28;20253;-74
2022/09/20 20:49:07;;;;;;;2.07;1.10;;;13.60;40.40;;;;;;10430596;28;20233;-74
2022/09/20 20:54:11;;;;;;;1.50;1.37;;;13.60;39.90;;;;;;10423696;28;20458;-74
2022/09/20 20:59:16;;;;;;;2.83;1.37;;;13.60;40.00;;;;;;10421647;28;20235;-74
2022/09/20 21:04:20;;;;;;;1.77;0.90;;;13.60;39.90;;;;;;10429718;28;20221;-74
2022/09/20 21:09:25;;;;;;;1.67;1.10;;;13.60;39.70;;;;;;10426243;28;20587;-75
2022/09/20 21:14:30;;;;;;;3.90;0.90;;;13.50;39.70;;;;;;10394345;28;20686;-74
2022/09/20 21:24:44;;;;;;;1.53;1.20;;;13.50;39.90;;;;;;10505908;28;20247;-73
2022/09/20 21:29:47;;;;;;;1.10;1.10;;;13.50;39.80;;;;;;10512078;28;20231;-73
2022/09/20 21:35:52;;;;;;;1.70;1.60;;;13.50;39.40;;;;;;10513200;28;20227;-73
2022/09/20 21:41:04;;;;;;;2.17;1.23;;;13.40;39.30;;;;;;10513088;28;20314;-72
2022/09/20 21:46:11;;;;;;;1.50;1.40;;;13.20;39.40;;;;;;10510756;28;20220;-73
2022/09/20 21:51:17;;;;;;;6.80;1.50;;;13.10;39.70;;;;;;10510715;28;20709;-73
2022/09/20 21:56:21;;;;;;;1.73;1.57;;;13.00;39.70;;;;;;10516960;28;20232;-72
2022/09/20 22:01:26;;;;;;;1.60;1.50;;;12.90;39.30;;;;;;10508040;28;20224;-73
2022/09/20 22:06:31;;;;;;;1.53;1.43;;;12.80;39.60;;;;;;10506701;28;20331;-73
2022/09/20 22:11:38;;;;;;;1.80;1.70;;;12.70;39.80;;;;;;10508835;28;20235;-72
2022/09/20 22:16:43;;;;;;;2.13;1.70;;;12.60;39.90;;;;;;10505418;28;20227;-73
2022/09/20 22:21:48;;;;;;;2.60;1.60;;;12.60;39.80;;;;;;10507265;28;20277;-73
2022/09/20 22:26:52;;;;;;;1.67;1.57;;;12.60;40.20;;;;;;10506544;28;20788;-73
2022/09/20 22:31:56;;;;;;;2.73;1.53;;;12.60;40.20;;;;;;10517394;28;20227;-73
2022/09/20 22:36:59;;;;;;;2.00;1.90;;;12.60;40.10;;;;;;10509640;28;20284;-73
2022/09/20 22:42:03;;;;;;;7.60;6.40;;;12.60;39.90;;;;;;10513453;28;20639;-72
2022/09/20 22:47:06;;;;;;;8.07;7.27;;;12.60;39.90;;;;;;10515193;28;20240;-73
2022/09/20 22:52:10;;;;;;;8.77;7.87;;;12.50;39.80;;;;;;10510685;28;20220;-73
2022/09/20 22:57:14;;;;;;;6.20;5.60;;;12.50;40.00;;;;;;10503415;28;20228;-73
2022/09/20 23:02:17;;;;;;;5.37;4.87;;;12.40;40.00;;;;;;10508364;28;20220;-73
2022/09/20 23:07:20;;;;;;;5.00;4.50;;;12.40;39.90;;;;;;10509629;28;20230;-73
2022/09/20 23:12:25;;;;;;;5.30;4.53;;;12.40;39.90;;;;;;10509548;28;20715;-72
2022/09/20 23:17:28;;;;;;;4.23;3.80;;;12.40;39.80;;;;;;10511612;28;20257;-73
2022/09/20 23:22:31;;;;;;;3.30;2.53;;;12.40;39.70;;;;;;10506515;28;20278;-73
2022/09/20 23:27:35;;;;;;;2.40;2.10;;;12.40;39.60;;;;;;10503909;28;20612;-73
2022/09/20 23:32:38;;;;;;;2.10;1.90;;;12.30;39.60;;;;;;10510427;28;20694;-73
2022/09/20 23:37:41;;;;;;;2.33;1.60;;;12.30;39.50;;;;;;10510764;28;20253;-73
2022/09/20 23:42:46;;;;;;;2.47;1.90;;;12.20;39.60;;;;;;10514551;28;20231;-73
2022/09/20 23:47:49;;;;;;;3.80;3.50;;;12.20;39.70;;;;;;10504002;27;20809;-73
2022/09/20 23:52:52;;;;;;;3.07;2.83;;;12.20;40.20;;;;;;10508866;28;20231;-73
2022/09/20 23:57:57;;;;;;;3.27;2.60;;;12.10;39.50;;;;;;10507632;28;20232;-72
